Terminal Aerodrome Forecast
Issued by NWS Austin/San Antonio, TX

Current Version | Previous Version | Text Only | Print | Product List | Glossary On
Versions: 1 2 3 4 5 6 7 8 9 10 11 12 13 14 15 16 17 18 19 20 21 22 23 24 25 26 27 28 29 30 31 32
000
FTUS44 KEWX 240220 AAB
TAFAUS
TAF AMD
KAUS 240220Z 2402/2506 14007KT P6SM -TSRA SCT030CB BKN100 BKN110
     FM240230 25013G40KT 1SM +TSRA BR OVC015CB
     FM240315 08007KT 5SM -TSRA BR BKN020CB OVC070
     FM241200 14008KT 3SM -SHRA BR OVC006
     FM241500 17013KT P6SM BKN015
     FM241700 18013KT P6SM SCT050=

USA.gov is the U.S. government's official web portal to all federal, state and local government web resources and services.